sensor_id;sensor_type;location;lat;lon;timestamp;P1;durP1;ratioP1;P2;durP2;ratioP2
38717;SDS011;24468;52.128;9.278;2023-07-20T00:01:05;9.82;;;2.08;;
38717;SDS011;24468;52.128;9.278;2023-07-20T00:03:30;1.92;;;0.80;;
38717;SDS011;24468;52.128;9.278;2023-07-20T00:05:56;3.35;;;1.10;;
38717;SDS011;24468;52.128;9.278;2023-07-20T00:08:21;8.23;;;1.50;;
38717;SDS011;24468;52.128;9.278;2023-07-20T00:10:47;7.63;;;1.33;;
38717;SDS011;24468;52.128;9.278;2023-07-20T00:13:13;4.47;;;1.88;;
38717;SDS011;24468;52.128;9.278;2023-07-20T00:15:40;2.72;;;1.05;;
38717;SDS011;24468;52.128;9.278;2023-07-20T00:18:07;3.83;;;1.23;;
38717;SDS011;24468;52.128;9.278;2023-07-20T00:20:32;6.18;;;1.60;;
38717;SDS011;24468;52.128;9.278;2023-07-20T00:22:58;6.35;;;1.38;;
38717;SDS011;24468;52.128;9.278;2023-07-20T00:25:24;6.45;;;1.83;;
38717;SDS011;24468;52.128;9.278;2023-07-20T00:27:50;2.60;;;1.63;;
38717;SDS011;24468;52.128;9.278;2023-07-20T00:30:16;6.00;;;2.22;;
38717;SDS011;24468;52.128;9.278;2023-07-20T00:32:42;7.30;;;2.20;;
38717;SDS011;24468;52.128;9.278;2023-07-20T00:35:08;5.40;;;1.90;;
38717;SDS011;24468;52.128;9.278;2023-07-20T00:37:35;4.95;;;2.63;;
38717;SDS011;24468;52.128;9.278;2023-07-20T00:40:01;2.92;;;1.80;;
38717;SDS011;24468;52.128;9.278;2023-07-20T00:42:29;3.03;;;2.30;;
38717;SDS011;24468;52.128;9.278;2023-07-20T00:44:56;7.93;;;1.98;;
38717;SDS011;24468;52.128;9.278;2023-07-20T00:47:21;9.02;;;2.38;;
38717;SDS011;24468;52.128;9.278;2023-07-20T00:49:47;8.00;;;2.08;;
38717;SDS011;24468;52.128;9.278;2023-07-20T00:52:13;2.80;;;1.40;;
38717;SDS011;24468;52.128;9.278;2023-07-20T00:54:39;5.88;;;1.80;;
38717;SDS011;24468;52.128;9.278;2023-07-20T00:57:06;11.82;;;1.88;;
38717;SDS011;24468;52.128;9.278;2023-07-20T00:59:33;13.45;;;1.95;;
38717;SDS011;24468;52.128;9.278;2023-07-20T01:02:00;14.68;;;2.53;;
38717;SDS011;24468;52.128;9.278;2023-07-20T01:04:27;12.82;;;2.78;;
38717;SDS011;24468;52.128;9.278;2023-07-20T01:12:54;7.47;;;2.20;;
38717;SDS011;24468;52.128;9.278;2023-07-20T01:15:21;10.85;;;2.10;;
38717;SDS011;24468;52.128;9.278;2023-07-20T01:17:47;11.00;;;1.85;;
38717;SDS011;24468;52.128;9.278;2023-07-20T01:20:13;15.48;;;2.72;;
38717;SDS011;24468;52.128;9.278;2023-07-20T01:28:37;9.57;;;2.13;;
38717;SDS011;24468;52.128;9.278;2023-07-20T01:31:30;11.00;;;1.85;;
38717;SDS011;24468;52.128;9.278;2023-07-20T01:34:00;8.02;;;1.92;;
38717;SDS011;24468;52.128;9.278;2023-07-20T01:36:29;8.85;;;2.08;;
38717;SDS011;24468;52.128;9.278;2023-07-20T01:38:58;8.15;;;1.98;;
38717;SDS011;24468;52.128;9.278;2023-07-20T01:41:24;17.15;;;2.35;;
38717;SDS011;24468;52.128;9.278;2023-07-20T01:43:50;13.40;;;2.47;;
38717;SDS011;24468;52.128;9.278;2023-07-20T01:46:15;3.70;;;0.90;;
38717;SDS011;24468;52.128;9.278;2023-07-20T01:48:41;7.65;;;1.30;;
38717;SDS011;24468;52.128;9.278;2023-07-20T01:51:06;8.48;;;1.42;;
38717;SDS011;24468;52.128;9.278;2023-07-20T01:53:32;15.25;;;2.65;;
38717;SDS011;24468;52.128;9.278;2023-07-20T01:55:58;9.73;;;1.40;;
38717;SDS011;24468;52.128;9.278;2023-07-20T01:58:23;10.27;;;1.80;;
38717;SDS011;24468;52.128;9.278;2023-07-20T02:00:49;14.10;;;2.25;;
38717;SDS011;24468;52.128;9.278;2023-07-20T02:03:15;16.60;;;2.42;;
38717;SDS011;24468;52.128;9.278;2023-07-20T02:05:44;23.50;;;3.95;;
38717;SDS011;24468;52.128;9.278;2023-07-20T02:08:10;19.17;;;2.83;;
38717;SDS011;24468;52.128;9.278;2023-07-20T02:10:35;15.13;;;2.83;;
38717;SDS011;24468;52.128;9.278;2023-07-20T02:13:01;29.95;;;3.50;;
38717;SDS011;24468;52.128;9.278;2023-07-20T02:15:27;21.50;;;2.88;;
38717;SDS011;24468;52.128;9.278;2023-07-20T02:17:53;20.15;;;3.08;;
38717;SDS011;24468;52.128;9.278;2023-07-20T02:20:19;18.70;;;2.85;;
38717;SDS011;24468;52.128;9.278;2023-07-20T02:22:45;26.27;;;2.38;;
38717;SDS011;24468;52.128;9.278;2023-07-20T02:25:11;12.45;;;2.35;;
38717;SDS011;24468;52.128;9.278;2023-07-20T02:27:37;13.75;;;3.13;;
38717;SDS011;24468;52.128;9.278;2023-07-20T02:30:03;18.13;;;2.72;;
38717;SDS011;24468;52.128;9.278;2023-07-20T02:32:31;11.90;;;2.45;;
38717;SDS011;24468;52.128;9.278;2023-07-20T02:34:57;14.63;;;2.30;;
38717;SDS011;24468;52.128;9.278;2023-07-20T02:37:23;14.65;;;2.13;;
38717;SDS011;24468;52.128;9.278;2023-07-20T02:39:49;14.60;;;2.22;;
38717;SDS011;24468;52.128;9.278;2023-07-20T02:42:14;14.13;;;3.53;;
38717;SDS011;24468;52.128;9.278;2023-07-20T02:44:40;21.33;;;3.05;;
38717;SDS011;24468;52.128;9.278;2023-07-20T02:47:06;5.32;;;1.75;;
38717;SDS011;24468;52.128;9.278;2023-07-20T02:49:31;8.50;;;2.00;;
38717;SDS011;24468;52.128;9.278;2023-07-20T02:51:57;11.13;;;2.47;;
38717;SDS011;24468;52.128;9.278;2023-07-20T02:54:22;27.40;;;3.55;;
38717;SDS011;24468;52.128;9.278;2023-07-20T02:56:48;17.23;;;2.55;;
38717;SDS011;24468;52.128;9.278;2023-07-20T02:59:13;10.07;;;2.92;;
38717;SDS011;24468;52.128;9.278;2023-07-20T03:01:39;10.20;;;2.33;;
38717;SDS011;24468;52.128;9.278;2023-07-20T03:04:07;17.27;;;3.03;;
38717;SDS011;24468;52.128;9.278;2023-07-20T03:06:35;12.18;;;2.30;;
38717;SDS011;24468;52.128;9.278;2023-07-20T03:09:01;13.25;;;2.20;;
38717;SDS011;24468;52.128;9.278;2023-07-20T03:11:26;14.43;;;2.92;;
38717;SDS011;24468;52.128;9.278;2023-07-20T03:13:52;10.07;;;1.80;;
38717;SDS011;24468;52.128;9.278;2023-07-20T03:16:18;13.05;;;2.75;;
38717;SDS011;24468;52.128;9.278;2023-07-20T03:18:45;20.33;;;3.78;;
38717;SDS011;24468;52.128;9.278;2023-07-20T03:21:11;17.77;;;3.55;;
38717;SDS011;24468;52.128;9.278;2023-07-20T03:23:37;11.05;;;2.40;;
38717;SDS011;24468;52.128;9.278;2023-07-20T03:26:06;12.18;;;2.00;;
38717;SDS011;24468;52.128;9.278;2023-07-20T03:28:35;14.07;;;2.92;;
38717;SDS011;24468;52.128;9.278;2023-07-20T03:31:02;24.67;;;3.35;;
38717;SDS011;24468;52.128;9.278;2023-07-20T03:33:29;11.30;;;2.30;;
38717;SDS011;24468;52.128;9.278;2023-07-20T03:35:55;31.02;;;4.60;;
38717;SDS011;24468;52.128;9.278;2023-07-20T03:38:22;18.95;;;3.30;;
38717;SDS011;24468;52.128;9.278;2023-07-20T03:40:51;8.15;;;2.30;;
38717;SDS011;24468;52.128;9.278;2023-07-20T03:43:19;15.60;;;2.88;;
38717;SDS011;24468;52.128;9.278;2023-07-20T03:45:45;13.27;;;2.80;;
38717;SDS011;24468;52.128;9.278;2023-07-20T03:48:12;8.52;;;2.63;;
38717;SDS011;24468;52.128;9.278;2023-07-20T03:50:40;11.18;;;2.72;;
38717;SDS011;24468;52.128;9.278;2023-07-20T03:53:05;10.60;;;2.50;;
38717;SDS011;24468;52.128;9.278;2023-07-20T03:55:31;11.45;;;2.28;;
38717;SDS011;24468;52.128;9.278;2023-07-20T03:57:56;10.48;;;2.08;;
38717;SDS011;24468;52.128;9.278;2023-07-20T04:00:22;11.70;;;2.08;;
38717;SDS011;24468;52.128;9.278;2023-07-20T04:02:47;8.23;;;2.22;;
38717;SDS011;24468;52.128;9.278;2023-07-20T04:05:13;5.63;;;1.52;;
38717;SDS011;24468;52.128;9.278;2023-07-20T04:07:38;3.33;;;1.42;;
38717;SDS011;24468;52.128;9.278;2023-07-20T04:10:04;5.93;;;1.92;;
38717;SDS011;24468;52.128;9.278;2023-07-20T04:12:30;11.10;;;2.95;;
38717;SDS011;24468;52.128;9.278;2023-07-20T04:14:55;11.93;;;2.08;;
38717;SDS011;24468;52.128;9.278;2023-07-20T04:17:21;13.32;;;2.60;;
38717;SDS011;24468;52.128;9.278;2023-07-20T04:19:46;8.05;;;2.88;;
38717;SDS011;24468;52.128;9.278;2023-07-20T04:22:12;9.05;;;2.05;;
38717;SDS011;24468;52.128;9.278;2023-07-20T04:24:40;14.48;;;2.45;;
38717;SDS011;24468;52.128;9.278;2023-07-20T04:27:08;10.20;;;2.22;;
38717;SDS011;24468;52.128;9.278;2023-07-20T04:29:34;7.82;;;2.50;;
38717;SDS011;24468;52.128;9.278;2023-07-20T04:31:59;4.78;;;1.80;;
38717;SDS011;24468;52.128;9.278;2023-07-20T04:34:25;5.35;;;2.33;;
38717;SDS011;24468;52.128;9.278;2023-07-20T04:36:50;9.52;;;2.45;;
38717;SDS011;24468;52.128;9.278;2023-07-20T04:39:16;5.32;;;2.38;;
38717;SDS011;24468;52.128;9.278;2023-07-20T04:41:42;4.28;;;3.05;;
38717;SDS011;24468;52.128;9.278;2023-07-20T04:44:07;6.70;;;3.08;;
38717;SDS011;24468;52.128;9.278;2023-07-20T04:46:33;3.00;;;2.40;;
38717;SDS011;24468;52.128;9.278;2023-07-20T04:48:58;4.68;;;2.67;;
38717;SDS011;24468;52.128;9.278;2023-07-20T04:51:24;3.20;;;2.90;;
38717;SDS011;24468;52.128;9.278;2023-07-20T04:53:49;5.00;;;2.60;;
38717;SDS011;24468;52.128;9.278;2023-07-20T04:56:16;2.88;;;2.67;;
38717;SDS011;24468;52.128;9.278;2023-07-20T04:58:45;4.85;;;2.83;;
38717;SDS011;24468;52.128;9.278;2023-07-20T05:01:13;3.25;;;3.05;;
38717;SDS011;24468;52.128;9.278;2023-07-20T05:03:38;6.75;;;4.10;;
38717;SDS011;24468;52.128;9.278;2023-07-20T05:06:04;4.80;;;4.28;;
38717;SDS011;24468;52.128;9.278;2023-07-20T05:08:29;5.75;;;3.50;;
38717;SDS011;24468;52.128;9.278;2023-07-20T05:10:55;4.97;;;4.15;;
38717;SDS011;24468;52.128;9.278;2023-07-20T05:13:20;6.43;;;3.50;;
38717;SDS011;24468;52.128;9.278;2023-07-20T05:15:46;4.85;;;4.05;;
38717;SDS011;24468;52.128;9.278;2023-07-20T05:18:13;5.75;;;4.28;;
38717;SDS011;24468;52.128;9.278;2023-07-20T05:20:38;7.70;;;3.65;;
38717;SDS011;24468;52.128;9.278;2023-07-20T05:23:04;5.90;;;4.65;;
38717;SDS011;24468;52.128;9.278;2023-07-20T05:25:30;5.68;;;4.13;;
38717;SDS011;24468;52.128;9.278;2023-07-20T05:27:56;5.18;;;3.88;;
38717;SDS011;24468;52.128;9.278;2023-07-20T05:30:23;6.93;;;4.20;;
38717;SDS011;24468;52.128;9.278;2023-07-20T05:32:48;4.45;;;4.05;;
38717;SDS011;24468;52.128;9.278;2023-07-20T05:35:17;4.72;;;3.60;;
38717;SDS011;24468;52.128;9.278;2023-07-20T05:37:44;5.53;;;4.47;;
38717;SDS011;24468;52.128;9.278;2023-07-20T05:40:10;5.45;;;3.50;;
38717;SDS011;24468;52.128;9.278;2023-07-20T05:42:37;5.90;;;4.05;;
38717;SDS011;24468;52.128;9.278;2023-07-20T05:45:06;3.25;;;2.95;;
38717;SDS011;24468;52.128;9.278;2023-07-20T05:47:32;4.07;;;3.45;;
38717;SDS011;24468;52.128;9.278;2023-07-20T05:49:58;4.50;;;3.22;;
38717;SDS011;24468;52.128;9.278;2023-07-20T05:52:23;3.55;;;3.25;;
38717;SDS011;24468;52.128;9.278;2023-07-20T05:54:49;3.95;;;3.55;;
38717;SDS011;24468;52.128;9.278;2023-07-20T05:57:14;3.90;;;3.50;;
38717;SDS011;24468;52.128;9.278;2023-07-20T05:59:40;4.10;;;3.42;;
38717;SDS011;24468;52.128;9.278;2023-07-20T06:02:09;4.93;;;2.67;;
38717;SDS011;24468;52.128;9.278;2023-07-20T06:04:35;4.13;;;2.92;;
38717;SDS011;24468;52.128;9.278;2023-07-20T06:07:00;3.60;;;3.20;;
38717;SDS011;24468;52.128;9.278;2023-07-20T06:09:26;3.28;;;2.88;;
38717;SDS011;24468;52.128;9.278;2023-07-20T06:11:52;4.28;;;2.95;;
38717;SDS011;24468;52.128;9.278;2023-07-20T06:14:18;3.60;;;2.55;;
38717;SDS011;24468;52.128;9.278;2023-07-20T06:16:44;3.42;;;3.13;;
38717;SDS011;24468;52.128;9.278;2023-07-20T06:19:10;3.78;;;3.40;;
38717;SDS011;24468;52.128;9.278;2023-07-20T06:21:37;3.05;;;2.85;;
38717;SDS011;24468;52.128;9.278;2023-07-20T06:24:03;3.42;;;2.95;;
38717;SDS011;24468;52.128;9.278;2023-07-20T06:26:29;3.15;;;2.95;;
38717;SDS011;24468;52.128;9.278;2023-07-20T06:28:55;2.92;;;2.47;;
38717;SDS011;24468;52.128;9.278;2023-07-20T06:31:22;2.45;;;1.83;;
38717;SDS011;24468;52.128;9.278;2023-07-20T06:33:48;1.90;;;1.80;;
38717;SDS011;24468;52.128;9.278;2023-07-20T06:36:15;2.47;;;2.28;;
38717;SDS011;24468;52.128;9.278;2023-07-20T06:38:52;3.10;;;2.25;;
38717;SDS011;24468;52.128;9.278;2023-07-20T06:41:18;2.55;;;2.28;;
38717;SDS011;24468;52.128;9.278;2023-07-20T06:44:03;2.53;;;2.33;;
38717;SDS011;24468;52.128;9.278;2023-07-20T06:46:31;3.38;;;2.88;;
38717;SDS011;24468;52.128;9.278;2023-07-20T06:49:27;3.63;;;3.28;;
38717;SDS011;24468;52.128;9.278;2023-07-20T06:51:53;3.33;;;2.97;;
38717;SDS011;24468;52.128;9.278;2023-07-20T06:54:19;4.15;;;3.00;;
38717;SDS011;24468;52.128;9.278;2023-07-20T06:56:45;2.90;;;2.50;;
38717;SDS011;24468;52.128;9.278;2023-07-20T06:59:10;3.75;;;2.65;;
38717;SDS011;24468;52.128;9.278;2023-07-20T07:01:36;5.45;;;2.50;;
38717;SDS011;24468;52.128;9.278;2023-07-20T07:04:02;3.10;;;2.13;;
38717;SDS011;24468;52.128;9.278;2023-07-20T07:06:28;2.85;;;2.65;;
38717;SDS011;24468;52.128;9.278;2023-07-20T07:08:54;2.88;;;2.67;;
38717;SDS011;24468;52.128;9.278;2023-07-20T07:11:20;3.80;;;2.90;;
38717;SDS011;24468;52.128;9.278;2023-07-20T07:13:46;3.10;;;2.83;;
38717;SDS011;24468;52.128;9.278;2023-07-20T07:16:14;4.32;;;2.92;;
38717;SDS011;24468;52.128;9.278;2023-07-20T07:18:43;2.83;;;2.63;;
38717;SDS011;24468;52.128;9.278;2023-07-20T07:21:12;3.13;;;2.85;;
38717;SDS011;24468;52.128;9.278;2023-07-20T07:23:38;3.05;;;2.78;;
38717;SDS011;24468;52.128;9.278;2023-07-20T07:26:04;2.33;;;2.13;;
38717;SDS011;24468;52.128;9.278;2023-07-20T07:28:29;2.88;;;1.92;;
38717;SDS011;24468;52.128;9.278;2023-07-20T07:30:55;4.70;;;2.53;;
38717;SDS011;24468;52.128;9.278;2023-07-20T07:33:22;1.98;;;1.88;;
38717;SDS011;24468;52.128;9.278;2023-07-20T07:35:49;2.88;;;1.75;;
38717;SDS011;24468;52.128;9.278;2023-07-20T07:38:17;2.13;;;1.63;;
38717;SDS011;24468;52.128;9.278;2023-07-20T07:40:43;3.47;;;1.88;;
38717;SDS011;24468;52.128;9.278;2023-07-20T07:43:09;3.70;;;1.90;;
38717;SDS011;24468;52.128;9.278;2023-07-20T07:45:35;2.30;;;2.10;;
38717;SDS011;24468;52.128;9.278;2023-07-20T07:48:04;3.15;;;2.60;;
38717;SDS011;24468;52.128;9.278;2023-07-20T07:50:31;2.00;;;1.80;;
38717;SDS011;24468;52.128;9.278;2023-07-20T07:52:57;1.50;;;1.40;;
38717;SDS011;24468;52.128;9.278;2023-07-20T07:55:22;2.38;;;2.17;;
38717;SDS011;24468;52.128;9.278;2023-07-20T07:57:49;2.90;;;2.58;;
38717;SDS011;24468;52.128;9.278;2023-07-20T08:00:15;2.53;;;2.33;;
38717;SDS011;24468;52.128;9.278;2023-07-20T08:02:43;2.78;;;2.50;;
38717;SDS011;24468;52.128;9.278;2023-07-20T08:05:13;2.63;;;2.42;;
38717;SDS011;24468;52.128;9.278;2023-07-20T08:07:39;3.28;;;1.75;;
38717;SDS011;24468;52.128;9.278;2023-07-20T08:10:05;2.45;;;2.25;;
38717;SDS011;24468;52.128;9.278;2023-07-20T08:12:31;2.45;;;1.40;;
38717;SDS011;24468;52.128;9.278;2023-07-20T08:14:57;1.73;;;1.63;;
38717;SDS011;24468;52.128;9.278;2023-07-20T08:17:22;2.58;;;1.40;;
38717;SDS011;24468;52.128;9.278;2023-07-20T08:19:48;5.35;;;1.33;;
38717;SDS011;24468;52.128;9.278;2023-07-20T08:22:13;1.33;;;1.23;;
38717;SDS011;24468;52.128;9.278;2023-07-20T08:24:39;2.83;;;1.20;;
38717;SDS011;24468;52.128;9.278;2023-07-20T08:27:06;2.53;;;1.30;;
38717;SDS011;24468;52.128;9.278;2023-07-20T08:29:32;1.73;;;1.60;;
38717;SDS011;24468;52.128;9.278;2023-07-20T08:31:57;2.38;;;1.40;;
38717;SDS011;24468;52.128;9.278;2023-07-20T08:34:23;2.28;;;1.70;;
38717;SDS011;24468;52.128;9.278;2023-07-20T08:36:48;1.98;;;1.25;;
38717;SDS011;24468;52.128;9.278;2023-07-20T08:39:14;1.05;;;0.70;;
38717;SDS011;24468;52.128;9.278;2023-07-20T08:41:39;0.90;;;0.82;;
38717;SDS011;24468;52.128;9.278;2023-07-20T08:44:11;1.15;;;0.60;;
38717;SDS011;24468;52.128;9.278;2023-07-20T08:46:38;0.98;;;0.50;;
38717;SDS011;24468;52.128;9.278;2023-07-20T08:49:03;2.75;;;1.23;;
38717;SDS011;24468;52.128;9.278;2023-07-20T08:51:31;0.82;;;0.80;;
38717;SDS011;24468;52.128;9.278;2023-07-20T08:53:58;2.40;;;1.35;;
38717;SDS011;24468;52.128;9.278;2023-07-20T08:56:25;2.05;;;1.00;;
38717;SDS011;24468;52.128;9.278;2023-07-20T08:58:54;2.20;;;1.35;;
38717;SDS011;24468;52.128;9.278;2023-07-20T09:01:20;4.13;;;0.90;;
38717;SDS011;24468;52.128;9.278;2023-07-20T09:03:47;2.08;;;0.88;;
38717;SDS011;24468;52.128;9.278;2023-07-20T09:06:13;2.13;;;0.80;;
38717;SDS011;24468;52.128;9.278;2023-07-20T09:08:39;1.33;;;0.77;;
38717;SDS011;24468;52.128;9.278;2023-07-20T09:11:05;2.45;;;0.77;;
38717;SDS011;24468;52.128;9.278;2023-07-20T09:13:32;0.63;;;0.47;;
38717;SDS011;24468;52.128;9.278;2023-07-20T09:15:59;1.40;;;0.50;;
38717;SDS011;24468;52.128;9.278;2023-07-20T09:18:25;0.82;;;0.63;;
38717;SDS011;24468;52.128;9.278;2023-07-20T09:20:54;0.65;;;0.30;;
38717;SDS011;24468;52.128;9.278;2023-07-20T09:23:31;0.40;;;0.40;;
38717;SDS011;24468;52.128;9.278;2023-07-20T09:25:57;0.32;;;0.30;;
38717;SDS011;24468;52.128;9.278;2023-07-20T09:28:24;1.75;;;0.40;;
38717;SDS011;24468;52.128;9.278;2023-07-20T09:30:49;1.75;;;0.40;;
38717;SDS011;24468;52.128;9.278;2023-07-20T09:33:18;0.80;;;0.35;;
38717;SDS011;24468;52.128;9.278;2023-07-20T09:35:46;0.30;;;0.30;;
38717;SDS011;24468;52.128;9.278;2023-07-20T09:38:12;0.30;;;0.30;;
38717;SDS011;24468;52.128;9.278;2023-07-20T09:40:40;0.98;;;0.35;;
38717;SDS011;24468;52.128;9.278;2023-07-20T09:43:09;0.55;;;0.30;;
38717;SDS011;24468;52.128;9.278;2023-07-20T09:45:39;0.63;;;0.28;;
38717;SDS011;24468;52.128;9.278;2023-07-20T09:48:07;1.50;;;0.40;;
38717;SDS011;24468;52.128;9.278;2023-07-20T09:50:34;0.85;;;0.47;;
38717;SDS011;24468;52.128;9.278;2023-07-20T09:53:07;1.27;;;0.50;;
38717;SDS011;24468;52.128;9.278;2023-07-20T09:55:36;1.48;;;0.40;;
38717;SDS011;24468;52.128;9.278;2023-07-20T09:58:02;0.50;;;0.30;;
38717;SDS011;24468;52.128;9.278;2023-07-20T10:00:28;0.47;;;0.38;;
38717;SDS011;24468;52.128;9.278;2023-07-20T10:02:54;0.60;;;0.40;;
38717;SDS011;24468;52.128;9.278;2023-07-20T10:05:23;0.93;;;0.40;;
38717;SDS011;24468;52.128;9.278;2023-07-20T10:07:52;2.60;;;0.40;;
38717;SDS011;24468;52.128;9.278;2023-07-20T10:10:19;1.05;;;0.60;;
38717;SDS011;24468;52.128;9.278;2023-07-20T10:12:46;2.33;;;0.55;;
38717;SDS011;24468;52.128;9.278;2023-07-20T10:15:15;2.13;;;0.60;;
38717;SDS011;24468;52.128;9.278;2023-07-20T10:17:58;0.75;;;0.40;;
38717;SDS011;24468;52.128;9.278;2023-07-20T10:20:31;0.68;;;0.40;;
38717;SDS011;24468;52.128;9.278;2023-07-20T10:22:59;3.22;;;0.50;;
38717;SDS011;24468;52.128;9.278;2023-07-20T10:25:25;0.20;;;0.20;;
38717;SDS011;24468;52.128;9.278;2023-07-20T10:27:51;0.60;;;0.40;;
38717;SDS011;24468;52.128;9.278;2023-07-20T10:30:17;0.57;;;0.20;;
38717;SDS011;24468;52.128;9.278;2023-07-20T10:32:44;2.17;;;0.43;;
38717;SDS011;24468;52.128;9.278;2023-07-20T10:35:14;2.15;;;0.50;;
38717;SDS011;24468;52.128;9.278;2023-07-20T10:40:25;0.32;;;0.32;;
38717;SDS011;24468;52.128;9.278;2023-07-20T10:43:02;1.95;;;0.40;;
38717;SDS011;24468;52.128;9.278;2023-07-20T10:45:33;1.30;;;0.70;;
38717;SDS011;24468;52.128;9.278;2023-07-20T10:48:06;0.73;;;0.17;;
38717;SDS011;24468;52.128;9.278;2023-07-20T10:50:39;0.50;;;0.40;;
38717;SDS011;24468;52.128;9.278;2023-07-20T10:55:42;8.93;;;0.63;;
38717;SDS011;24468;52.128;9.278;2023-07-20T10:58:12;0.20;;;0.20;;
38717;SDS011;24468;52.128;9.278;2023-07-20T11:01:01;6.80;;;0.45;;
38717;SDS011;24468;52.128;9.278;2023-07-20T11:03:36;0.40;;;0.20;;
38717;SDS011;24468;52.128;9.278;2023-07-20T11:06:29;0.43;;;0.20;;
38717;SDS011;24468;52.128;9.278;2023-07-20T11:11:44;0.30;;;0.30;;
38717;SDS011;24468;52.128;9.278;2023-07-20T11:16:51;0.45;;;0.20;;
38717;SDS011;24468;52.128;9.278;2023-07-20T11:21:52;0.50;;;0.20;;
38717;SDS011;24468;52.128;9.278;2023-07-20T11:24:20;0.93;;;0.30;;
38717;SDS011;24468;52.128;9.278;2023-07-20T11:26:49;0.30;;;0.30;;
38717;SDS011;24468;52.128;9.278;2023-07-20T11:29:18;0.85;;;0.43;;
38717;SDS011;24468;52.128;9.278;2023-07-20T11:31:48;0.87;;;0.43;;
38717;SDS011;24468;52.128;9.278;2023-07-20T11:34:17;2.88;;;0.15;;
38717;SDS011;24468;52.128;9.278;2023-07-20T11:36:46;0.65;;;0.40;;
38717;SDS011;24468;52.128;9.278;2023-07-20T11:39:15;0.40;;;0.15;;
38717;SDS011;24468;52.128;9.278;2023-07-20T11:41:46;2.03;;;0.40;;
38717;SDS011;24468;52.128;9.278;2023-07-20T11:44:16;0.47;;;0.35;;
38717;SDS011;24468;52.128;9.278;2023-07-20T11:46:43;1.35;;;0.35;;
38717;SDS011;24468;52.128;9.278;2023-07-20T11:49:09;1.00;;;0.30;;
38717;SDS011;24468;52.128;9.278;2023-07-20T11:51:36;0.40;;;0.20;;
38717;SDS011;24468;52.128;9.278;2023-07-20T11:54:03;0.52;;;0.35;;
38717;SDS011;24468;52.128;9.278;2023-07-20T11:56:31;0.57;;;0.30;;
38717;SDS011;24468;52.128;9.278;2023-07-20T11:58:59;1.15;;;0.32;;
38717;SDS011;24468;52.128;9.278;2023-07-20T12:01:27;0.22;;;0.10;;
38717;SDS011;24468;52.128;9.278;2023-07-20T12:04:01;2.05;;;0.50;;
38717;SDS011;24468;52.128;9.278;2023-07-20T12:06:28;0.70;;;0.30;;
38717;SDS011;24468;52.128;9.278;2023-07-20T12:08:55;1.13;;;0.40;;
38717;SDS011;24468;52.128;9.278;2023-07-20T12:11:39;0.75;;;0.20;;
38717;SDS011;24468;52.128;9.278;2023-07-20T12:14:08;0.97;;;0.33;;
38717;SDS011;24468;52.128;9.278;2023-07-20T12:16:35;0.73;;;0.40;;
38717;SDS011;24468;52.128;9.278;2023-07-20T12:19:03;0.85;;;0.43;;
38717;SDS011;24468;52.128;9.278;2023-07-20T12:21:33;1.15;;;0.20;;
38717;SDS011;24468;52.128;9.278;2023-07-20T12:24:03;1.17;;;0.52;;
38717;SDS011;24468;52.128;9.278;2023-07-20T12:26:30;2.00;;;0.50;;
38717;SDS011;24468;52.128;9.278;2023-07-20T12:28:58;1.88;;;0.35;;
38717;SDS011;24468;52.128;9.278;2023-07-20T12:31:24;0.63;;;0.32;;
38717;SDS011;24468;52.128;9.278;2023-07-20T12:33:50;0.32;;;0.20;;
38717;SDS011;24468;52.128;9.278;2023-07-20T12:36:17;0.60;;;0.38;;
38717;SDS011;24468;52.128;9.278;2023-07-20T12:38:43;0.75;;;0.22;;
38717;SDS011;24468;52.128;9.278;2023-07-20T12:41:09;1.75;;;0.50;;
38717;SDS011;24468;52.128;9.278;2023-07-20T12:43:40;2.05;;;0.52;;
38717;SDS011;24468;52.128;9.278;2023-07-20T12:46:07;1.65;;;0.32;;
38717;SDS011;24468;52.128;9.278;2023-07-20T12:48:33;1.90;;;0.50;;
38717;SDS011;24468;52.128;9.278;2023-07-20T12:50:58;0.17;;;0.13;;
38717;SDS011;24468;52.128;9.278;2023-07-20T12:53:24;0.30;;;0.30;;
38717;SDS011;24468;52.128;9.278;2023-07-20T12:55:49;1.20;;;0.40;;
38717;SDS011;24468;52.128;9.278;2023-07-20T12:58:15;0.68;;;0.20;;
38717;SDS011;24468;52.128;9.278;2023-07-20T13:00:40;1.20;;;0.32;;
38717;SDS011;24468;52.128;9.278;2023-07-20T13:03:06;5.15;;;0.70;;
38717;SDS011;24468;52.128;9.278;2023-07-20T13:05:33;0.70;;;0.32;;
38717;SDS011;24468;52.128;9.278;2023-07-20T13:08:00;1.38;;;0.50;;
38717;SDS011;24468;52.128;9.278;2023-07-20T13:10:27;7.97;;;1.00;;
38717;SDS011;24468;52.128;9.278;2023-07-20T13:12:53;1.30;;;0.40;;
38717;SDS011;24468;52.128;9.278;2023-07-20T13:15:20;1.08;;;0.32;;
38717;SDS011;24468;52.128;9.278;2023-07-20T13:17:45;0.57;;;0.30;;
38717;SDS011;24468;52.128;9.278;2023-07-20T13:20:11;2.15;;;0.57;;
38717;SDS011;24468;52.128;9.278;2023-07-20T13:22:40;1.35;;;0.40;;
38717;SDS011;24468;52.128;9.278;2023-07-20T13:25:06;0.63;;;0.43;;
38717;SDS011;24468;52.128;9.278;2023-07-20T13:27:33;1.80;;;0.50;;
38717;SDS011;24468;52.128;9.278;2023-07-20T13:29:59;2.15;;;0.30;;
38717;SDS011;24468;52.128;9.278;2023-07-20T13:32:26;0.50;;;0.38;;
38717;SDS011;24468;52.128;9.278;2023-07-20T13:34:52;1.10;;;0.28;;
38717;SDS011;24468;52.128;9.278;2023-07-20T13:37:18;1.42;;;0.43;;
38717;SDS011;24468;52.128;9.278;2023-07-20T13:39:43;2.15;;;0.65;;
38717;SDS011;24468;52.128;9.278;2023-07-20T13:42:09;0.60;;;0.20;;
38717;SDS011;24468;52.128;9.278;2023-07-20T13:44:37;1.58;;;0.43;;
38717;SDS011;24468;52.128;9.278;2023-07-20T13:47:02;1.35;;;0.40;;
38717;SDS011;24468;52.128;9.278;2023-07-20T13:49:30;1.58;;;0.40;;
38717;SDS011;24468;52.128;9.278;2023-07-20T13:51:57;1.00;;;0.28;;
38717;SDS011;24468;52.128;9.278;2023-07-20T13:54:23;0.85;;;0.40;;
38717;SDS011;24468;52.128;9.278;2023-07-20T13:56:49;0.80;;;0.25;;
38717;SDS011;24468;52.128;9.278;2023-07-20T13:59:15;1.83;;;0.30;;
38717;SDS011;24468;52.128;9.278;2023-07-20T14:01:40;0.73;;;0.40;;
38717;SDS011;24468;52.128;9.278;2023-07-20T14:04:06;1.85;;;0.50;;
38717;SDS011;24468;52.128;9.278;2023-07-20T14:06:33;1.17;;;0.50;;
38717;SDS011;24468;52.128;9.278;2023-07-20T14:08:58;1.15;;;0.40;;
38717;SDS011;24468;52.128;9.278;2023-07-20T14:11:25;0.70;;;0.60;;
38717;SDS011;24468;52.128;9.278;2023-07-20T14:13:51;1.38;;;0.52;;
38717;SDS011;24468;52.128;9.278;2023-07-20T14:16:18;3.15;;;0.50;;
38717;SDS011;24468;52.128;9.278;2023-07-20T14:18:45;0.52;;;0.28;;
38717;SDS011;24468;52.128;9.278;2023-07-20T14:21:17;0.75;;;0.47;;
38717;SDS011;24468;52.128;9.278;2023-07-20T14:23:45;1.40;;;0.50;;
38717;SDS011;24468;52.128;9.278;2023-07-20T14:26:16;0.90;;;0.40;;
38717;SDS011;24468;52.128;9.278;2023-07-20T14:28:42;1.20;;;0.70;;
38717;SDS011;24468;52.128;9.278;2023-07-20T14:31:08;0.60;;;0.30;;
38717;SDS011;24468;52.128;9.278;2023-07-20T14:33:33;1.40;;;0.50;;
38717;SDS011;24468;52.128;9.278;2023-07-20T14:35:59;2.42;;;0.45;;
38717;SDS011;24468;52.128;9.278;2023-07-20T14:38:26;1.10;;;0.40;;
38717;SDS011;24468;52.128;9.278;2023-07-20T14:40:53;1.15;;;0.30;;
38717;SDS011;24468;52.128;9.278;2023-07-20T14:43:19;0.40;;;0.40;;
38717;SDS011;24468;52.128;9.278;2023-07-20T14:45:44;0.60;;;0.52;;
38717;SDS011;24468;52.128;9.278;2023-07-20T14:48:10;2.17;;;0.77;;
38717;SDS011;24468;52.128;9.278;2023-07-20T14:50:36;1.42;;;0.73;;
38717;SDS011;24468;52.128;9.278;2023-07-20T14:53:01;0.90;;;0.90;;
38717;SDS011;24468;52.128;9.278;2023-07-20T14:55:28;0.60;;;0.60;;
38717;SDS011;24468;52.128;9.278;2023-07-20T14:57:53;0.77;;;0.57;;
38717;SDS011;24468;52.128;9.278;2023-07-20T15:00:19;1.10;;;1.08;;
38717;SDS011;24468;52.128;9.278;2023-07-20T15:02:45;1.02;;;0.82;;
38717;SDS011;24468;52.128;9.278;2023-07-20T15:05:10;2.83;;;0.80;;
38717;SDS011;24468;52.128;9.278;2023-07-20T15:07:36;1.85;;;0.80;;
38717;SDS011;24468;52.128;9.278;2023-07-20T15:10:02;1.00;;;0.68;;